createdAt,value
2019-01-11T00:00:44.688Z,39.70
2019-01-11T00:01:52.099Z,38.78
2019-01-11T00:02:59.134Z,39.05
2019-01-11T00:04:06.645Z,38.45
2019-01-11T00:05:13.964Z,38.13
2019-01-11T00:06:21.020Z,39.70
2019-01-11T00:07:28.368Z,37.20
2019-01-11T00:08:35.030Z,37.58
2019-01-11T00:09:41.761Z,38.25
2019-01-11T00:10:48.982Z,39.23
2019-01-11T00:11:56.039Z,37.75
2019-01-11T00:13:03.147Z,35.73
2019-01-11T00:14:09.889Z,38.80
2019-01-11T00:15:16.612Z,38.08
2019-01-11T00:16:23.554Z,37.03
2019-01-11T00:17:30.206Z,37.20
2019-01-11T00:18:37.332Z,39.05
2019-01-11T00:19:44.028Z,37.67
2019-01-11T00:20:50.694Z,36.03
2019-01-11T00:21:57.827Z,37.05
2019-01-11T00:23:05.188Z,36.83
2019-01-11T00:24:12.591Z,34.78
2019-01-11T00:25:19.770Z,34.45
2019-01-11T00:26:26.830Z,34.85
2019-01-11T00:27:33.939Z,35.10
2019-01-11T00:28:40.660Z,35.33
2019-01-11T00:29:47.343Z,36.25
2019-01-11T00:30:54.345Z,36.75
2019-01-11T00:32:01.071Z,35.35
2019-01-11T00:33:07.818Z,36.77
2019-01-11T00:34:14.801Z,37.58
2019-01-11T00:35:21.966Z,35.80
2019-01-11T00:36:29.117Z,36.00
2019-01-11T00:37:36.213Z,34.08
2019-01-11T00:38:42.875Z,36.80
2019-01-11T00:39:49.550Z,34.40
2019-01-11T00:40:56.666Z,37.15
2019-01-11T00:42:03.353Z,38.05
2019-01-11T00:43:14.993Z,34.88
2019-01-11T00:44:19.016Z,35.50
2019-01-11T00:45:26.504Z,33.75
2019-01-11T00:46:33.232Z,33.73
2019-01-11T00:47:40.057Z,35.58
2019-01-11T00:48:46.754Z,35.20
2019-01-11T00:49:53.710Z,34.75
2019-01-11T00:51:00.421Z,32.88
2019-01-11T00:52:07.158Z,33.75
2019-01-11T00:53:14.038Z,35.08
2019-01-11T00:54:20.696Z,35.98
2019-01-11T00:55:27.396Z,36.63
2019-01-11T00:56:34.102Z,34.08
2019-01-11T00:57:40.996Z,34.65
2019-01-11T00:58:47.879Z,34.88
2019-01-11T00:59:54.538Z,35.28
2019-01-11T01:01:01.239Z,34.78
2019-01-11T01:02:08.467Z,35.48
2019-01-11T01:03:15.132Z,35.13
2019-01-11T01:04:21.808Z,34.88
2019-01-11T01:05:28.917Z,36.40
2019-01-11T01:06:38.489Z,34.40
2019-01-11T01:07:45.708Z,37.50
2019-01-11T01:08:52.427Z,32.75
2019-01-11T01:09:59.106Z,34.38
2019-01-11T01:11:07.117Z,33.88
2019-01-11T01:12:13.934Z,34.08
2019-01-11T01:13:20.746Z,33.67
2019-01-11T01:14:27.414Z,34.75
2019-01-11T01:15:34.072Z,34.13
2019-01-11T01:16:40.802Z,32.10
2019-01-11T01:17:47.768Z,33.70
2019-01-11T01:18:54.754Z,34.45
2019-01-11T01:20:01.592Z,33.05
2019-01-11T01:21:08.871Z,35.00
2019-01-11T01:22:15.631Z,35.05
2019-01-11T01:23:22.289Z,34.08
2019-01-11T01:24:29.047Z,32.38
2019-01-11T01:25:36.262Z,33.05
2019-01-11T01:26:42.953Z,34.45
2019-01-11T01:27:50.120Z,34.10
2019-01-11T01:28:56.792Z,32.40
2019-01-11T01:30:04.065Z,33.70
2019-01-11T01:31:11.035Z,35.15
2019-01-11T01:32:17.676Z,35.13
2019-01-11T01:33:24.404Z,35.73
2019-01-11T01:34:31.067Z,34.03
2019-01-11T01:35:37.843Z,34.98
2019-01-11T01:36:44.983Z,34.48
2019-01-11T01:37:51.742Z,36.53
2019-01-11T01:38:58.426Z,35.80
2019-01-11T01:40:06.561Z,34.13
2019-01-11T01:41:13.247Z,35.83
2019-01-11T01:42:20.268Z,36.80
2019-01-11T01:43:27.405Z,34.58
2019-01-11T01:44:34.482Z,36.30
2019-01-11T01:45:41.351Z,35.05
2019-01-11T01:46:48.052Z,34.58
2019-01-11T01:47:54.698Z,36.83
2019-01-11T01:49:01.924Z,34.75
2019-01-11T01:50:09.940Z,35.45
2019-01-11T01:51:16.686Z,33.55
2019-01-11T01:52:23.525Z,35.13
2019-01-11T01:53:30.175Z,38.05
2019-01-11T01:54:36.935Z,36.68
2019-01-11T01:55:44.372Z,35.13
2019-01-11T01:56:51.776Z,35.38
2019-01-11T01:57:58.906Z,38.02
2019-01-11T01:59:05.717Z,36.03
2019-01-11T02:00:17.550Z,35.38
2019-01-11T02:01:24.237Z,36.55
2019-01-11T02:02:31.262Z,36.55
2019-01-11T02:03:38.022Z,37.38
2019-01-11T02:04:45.175Z,39.80
2019-01-11T02:05:52.493Z,35.75
2019-01-11T02:06:59.611Z,36.45
2019-01-11T02:08:06.412Z,38.60
2019-01-11T02:09:13.135Z,36.98
2019-01-11T02:10:19.833Z,36.53
2019-01-11T02:11:26.486Z,35.63
2019-01-11T02:12:33.277Z,38.45
2019-01-11T02:13:40.546Z,36.98
2019-01-11T02:14:47.480Z,37.15
2019-01-11T02:15:54.197Z,36.75
2019-01-11T02:17:00.889Z,37.10
2019-01-11T02:18:08.010Z,38.15
2019-01-11T02:19:14.774Z,39.90
2019-01-11T02:20:21.459Z,40.38
2019-01-11T02:21:28.138Z,38.78
2019-01-11T02:22:35.205Z,37.78
2019-01-11T02:23:41.929Z,38.15
2019-01-11T02:24:48.601Z,38.58
2019-01-11T02:25:55.334Z,38.92
2019-01-11T02:27:01.998Z,38.95
2019-01-11T02:28:08.744Z,40.23
2019-01-11T02:29:15.860Z,37.48
2019-01-11T02:30:24.704Z,39.30
2019-01-11T02:31:31.358Z,36.60
2019-01-11T02:32:38.509Z,41.02
2019-01-11T02:33:45.488Z,38.75
2019-01-11T02:34:52.171Z,39.55
2019-01-11T02:35:58.924Z,39.40
2019-01-11T02:37:05.676Z,39.00
2019-01-11T02:38:12.474Z,39.48
2019-01-11T02:39:19.176Z,38.98
2019-01-11T02:40:25.899Z,40.25
2019-01-11T02:41:33.298Z,40.73
2019-01-11T02:42:40.451Z,39.78
2019-01-11T02:43:47.423Z,40.05
2019-01-11T02:44:54.165Z,39.18
2019-01-11T02:46:00.835Z,37.55
2019-01-11T02:47:07.922Z,39.38
2019-01-11T02:48:14.664Z,40.38
2019-01-11T02:49:21.410Z,43.73
2019-01-11T02:50:28.318Z,41.50
2019-01-11T02:51:35.010Z,40.65
2019-01-11T02:52:41.821Z,42.00
2019-01-11T02:53:48.866Z,40.35
2019-01-11T02:54:55.563Z,42.62
2019-01-11T02:56:02.658Z,41.92
2019-01-11T02:57:09.347Z,40.30
2019-01-11T02:58:16.853Z,41.25
2019-01-11T02:59:23.857Z,39.40
2019-01-11T03:00:30.585Z,43.83
2019-01-11T03:01:37.242Z,40.55
2019-01-11T03:02:43.951Z,42.30
2019-01-11T03:03:50.640Z,41.83
2019-01-11T03:04:57.740Z,39.73
2019-01-11T03:06:04.653Z,39.65
2019-01-11T03:07:11.310Z,42.13
2019-01-11T03:08:18.438Z,43.13
2019-01-11T03:09:25.144Z,38.80
2019-01-11T03:10:32.190Z,41.42
2019-01-11T03:11:38.943Z,44.25
2019-01-11T03:12:46.438Z,41.70
2019-01-11T03:13:53.181Z,45.28
2019-01-11T03:14:59.980Z,40.95
2019-01-11T03:16:07.055Z,42.10
2019-01-11T03:17:13.822Z,42.05
2019-01-11T03:18:20.846Z,41.25
2019-01-11T03:19:27.537Z,43.45
2019-01-11T03:20:34.705Z,43.13
2019-01-11T03:21:41.760Z,44.20
2019-01-11T03:22:49.114Z,45.05
2019-01-11T03:23:56.087Z,42.40
2019-01-11T03:25:02.810Z,43.42
2019-01-11T03:26:09.877Z,43.20
2019-01-11T03:27:16.643Z,44.10
2019-01-11T03:28:23.451Z,45.13
2019-01-11T03:29:30.590Z,45.52
2019-01-11T03:30:37.350Z,43.70
2019-01-11T03:31:44.137Z,44.33
2019-01-11T03:32:51.640Z,47.27
2019-01-11T03:33:58.562Z,47.05
2019-01-11T03:35:15.437Z,42.35
2019-01-11T03:36:22.451Z,44.18
2019-01-11T03:37:29.115Z,45.20
2019-01-11T03:38:35.859Z,45.65
2019-01-11T03:39:43.170Z,45.30
2019-01-11T03:40:49.891Z,43.80
2019-01-11T03:42:03.207Z,46.02
2019-01-11T03:43:10.301Z,47.43
2019-01-11T03:44:16.988Z,46.37
2019-01-11T03:45:25.615Z,44.70
2019-01-11T03:46:32.600Z,44.67
2019-01-11T03:47:39.742Z,47.62
2019-01-11T03:48:46.748Z,42.93
2019-01-11T03:49:54.928Z,44.60
2019-01-11T03:51:02.004Z,44.45
2019-01-11T03:52:08.686Z,41.65
2019-01-11T03:53:15.724Z,44.45
2019-01-11T03:54:22.669Z,46.05
2019-01-11T03:55:29.349Z,45.65
2019-01-11T03:56:36.442Z,42.88
2019-01-11T03:57:43.387Z,50.73
2019-01-11T03:58:50.057Z,50.25
2019-01-11T03:59:57.092Z,47.48
2019-01-11T04:01:03.854Z,46.40
2019-01-11T04:02:10.573Z,47.45
2019-01-11T04:03:17.238Z,47.30
2019-01-11T04:04:24.291Z,48.38
2019-01-11T04:05:31.291Z,47.80
2019-01-11T04:06:38.061Z,44.50
2019-01-11T04:07:45.261Z,45.37
2019-01-11T04:08:51.955Z,44.67
2019-01-11T04:09:58.988Z,45.20
2019-01-11T04:11:05.868Z,47.10
2019-01-11T04:12:12.616Z,48.60
2019-01-11T04:13:30.477Z,47.55
2019-01-11T04:14:33.816Z,47.10
2019-01-11T04:15:40.526Z,46.37
2019-01-11T04:16:47.218Z,45.95
2019-01-11T04:18:13.331Z,46.63
2019-01-11T04:19:19.989Z,44.08
2019-01-11T04:20:26.673Z,45.65
2019-01-11T04:21:33.364Z,46.88
2019-01-11T04:22:48.002Z,45.65
2019-01-11T04:23:55.046Z,46.70
2019-01-11T04:25:06.492Z,45.65
2019-01-11T04:26:13.577Z,44.55
2019-01-11T04:27:20.321Z,47.62
2019-01-11T04:28:27.880Z,45.65
2019-01-11T04:29:34.576Z,45.03
2019-01-11T04:30:41.304Z,48.30
2019-01-11T04:31:48.402Z,49.35
2019-01-11T04:32:55.101Z,43.45
2019-01-11T04:34:01.795Z,45.88
2019-01-11T04:35:09.163Z,46.25
2019-01-11T04:36:16.183Z,45.12
2019-01-11T04:37:23.172Z,47.85
2019-01-11T04:38:29.942Z,45.90
2019-01-11T04:39:36.679Z,47.73
2019-01-11T04:40:43.838Z,47.65
2019-01-11T04:41:50.590Z,45.95
2019-01-11T04:42:57.338Z,46.88
2019-01-11T04:44:04.561Z,46.68
2019-01-11T04:45:12.166Z,47.15
2019-01-11T04:46:18.921Z,48.25
2019-01-11T04:47:25.655Z,47.95
2019-01-11T04:48:32.358Z,45.03
2019-01-11T04:49:40.356Z,47.53
2019-01-11T04:50:47.113Z,47.17
2019-01-11T04:51:53.815Z,46.73
2019-01-11T04:53:00.556Z,45.67
2019-01-11T04:54:07.256Z,45.35
2019-01-11T04:55:14.732Z,47.67
2019-01-11T04:56:21.430Z,47.05
2019-01-11T04:57:28.157Z,47.95
2019-01-11T04:58:34.900Z,46.60
2019-01-11T04:59:41.612Z,44.25
2019-01-11T05:00:48.302Z,47.90
2019-01-11T05:01:55.401Z,45.90
2019-01-11T05:03:02.237Z,48.05
2019-01-11T05:04:08.946Z,47.48
2019-01-11T05:05:15.656Z,46.30
2019-01-11T05:06:22.383Z,46.85
2019-01-11T05:07:29.324Z,45.92
2019-01-11T05:08:36.038Z,44.70
2019-01-11T05:09:42.862Z,46.40
2019-01-11T05:10:49.884Z,46.53
2019-01-11T05:11:56.553Z,42.50
2019-01-11T05:13:21.015Z,41.90
2019-01-11T05:14:27.709Z,43.50
2019-01-11T05:15:34.419Z,45.23
2019-01-11T05:16:41.678Z,45.75
2019-01-11T05:17:48.441Z,44.98
2019-01-11T05:18:55.526Z,44.95
2019-01-11T05:20:02.183Z,43.80
2019-01-11T05:21:09.152Z,47.38
2019-01-11T05:22:15.867Z,43.10
2019-01-11T05:23:22.874Z,43.30
2019-01-11T05:24:29.657Z,43.58
2019-01-11T05:25:36.355Z,44.38
2019-01-11T05:26:43.132Z,42.58
2019-01-11T05:27:50.291Z,46.88
2019-01-11T05:28:57.027Z,44.73
2019-01-11T05:30:03.762Z,45.83
2019-01-11T05:31:10.573Z,46.37
2019-01-11T05:32:17.623Z,47.30
2019-01-11T05:33:24.606Z,48.33
2019-01-11T05:34:31.340Z,45.67
2019-01-11T05:35:38.413Z,45.10
2019-01-11T05:36:45.480Z,44.20
2019-01-11T05:37:52.175Z,48.58
2019-01-11T05:38:59.192Z,48.83
2019-01-11T05:40:09.691Z,49.18
2019-01-11T05:41:16.836Z,44.75
2019-01-11T05:42:23.502Z,47.13
2019-01-11T05:43:30.168Z,49.97
2019-01-11T05:44:37.507Z,45.30
2019-01-11T05:45:44.547Z,44.95
2019-01-11T05:46:51.376Z,45.03
2019-01-11T05:47:58.101Z,44.60
2019-01-11T05:49:05.232Z,44.90
2019-01-11T05:50:15.099Z,46.55
2019-01-11T05:51:21.772Z,47.37
2019-01-11T05:52:28.533Z,45.80
2019-01-11T05:53:35.490Z,43.60
2019-01-11T05:54:42.571Z,46.75
2019-01-11T05:55:50.787Z,45.30
2019-01-11T05:56:57.806Z,45.73
2019-01-11T05:58:28.975Z,43.80
2019-01-11T05:59:35.948Z,42.55
2019-01-11T06:00:42.968Z,44.00
2019-01-11T06:01:49.669Z,45.12
2019-01-11T06:02:56.496Z,47.58
2019-01-11T06:04:05.199Z,44.73
2019-01-11T06:05:12.900Z,44.85
2019-01-11T06:06:19.829Z,46.90
2019-01-11T06:07:48.355Z,47.25
2019-01-11T06:08:55.404Z,45.95
2019-01-11T06:10:03.091Z,48.10
2019-01-11T06:11:10.013Z,45.37
2019-01-11T06:12:17.132Z,46.17
2019-01-11T06:13:24.738Z,47.50
2019-01-11T06:14:31.700Z,47.88
2019-01-11T06:15:38.416Z,47.97
2019-01-11T06:16:45.102Z,49.48
2019-01-11T06:17:52.424Z,47.20
2019-01-11T06:18:59.138Z,47.50
2019-01-11T06:20:11.157Z,46.25
2019-01-11T06:21:17.895Z,46.02
2019-01-11T06:22:24.942Z,47.00
2019-01-11T06:23:31.868Z,45.63
2019-01-11T06:24:38.910Z,48.85
2019-01-11T06:25:46.137Z,43.87
2019-01-11T06:26:53.229Z,46.75
2019-01-11T06:27:59.915Z,45.48
2019-01-11T06:29:07.754Z,46.25
2019-01-11T06:30:16.268Z,47.58
2019-01-11T06:31:22.972Z,45.23
2019-01-11T06:32:29.821Z,47.57
2019-01-11T06:33:36.839Z,41.65
2019-01-11T06:34:43.630Z,44.63
2019-01-11T06:35:50.328Z,46.58
2019-01-11T06:36:57.113Z,44.03
2019-01-11T06:38:04.969Z,45.50
2019-01-11T06:39:11.700Z,45.50
2019-01-11T06:40:18.459Z,43.95
2019-01-11T06:41:27.028Z,45.98
2019-01-11T06:42:34.003Z,42.62
2019-01-11T06:43:41.167Z,43.03
2019-01-11T06:44:47.855Z,44.15
2019-01-11T06:45:54.899Z,43.77
2019-01-11T06:47:02.008Z,45.40
2019-01-11T06:48:16.517Z,42.43
2019-01-11T06:49:23.547Z,42.27
2019-01-11T06:50:36.354Z,46.40
2019-01-11T06:51:39.206Z,43.45
2019-01-11T06:52:46.139Z,40.55
2019-01-11T06:53:53.235Z,44.00
2019-01-11T06:54:59.880Z,46.10
2019-01-11T06:56:07.376Z,42.13
2019-01-11T06:57:14.536Z,40.35
2019-01-11T06:58:21.222Z,40.57
2019-01-11T06:59:28.545Z,42.13
2019-01-11T07:00:35.978Z,39.50
2019-01-11T07:01:42.620Z,39.10
2019-01-11T07:02:49.287Z,39.30
2019-01-11T07:03:56.672Z,43.25
2019-01-11T07:05:03.396Z,39.42
2019-01-11T07:06:10.230Z,38.73
2019-01-11T07:07:17.368Z,39.48
2019-01-11T07:08:24.074Z,38.93
2019-01-11T07:09:30.787Z,38.50
2019-01-11T07:10:37.550Z,38.28
2019-01-11T07:11:44.265Z,40.52
2019-01-11T07:12:50.942Z,39.50
2019-01-11T07:13:57.673Z,38.60
2019-01-11T07:15:04.767Z,38.27
2019-01-11T07:16:11.469Z,38.00
2019-01-11T07:17:18.503Z,37.53
2019-01-11T07:18:25.599Z,38.35
2019-01-11T07:19:32.394Z,35.27
2019-01-11T07:20:42.909Z,36.57
2019-01-11T07:21:48.100Z,37.03
2019-01-11T07:22:54.779Z,35.30
2019-01-11T07:24:01.941Z,33.30
2019-01-11T07:25:10.098Z,35.03
2019-01-11T07:26:16.775Z,32.17
2019-01-11T07:27:24.103Z,33.40
2019-01-11T07:28:31.441Z,33.65
2019-01-11T07:29:38.277Z,32.42
2019-01-11T07:30:58.617Z,34.30
2019-01-11T07:32:05.699Z,30.97
2019-01-11T07:33:18.397Z,32.48
2019-01-11T07:34:25.142Z,32.00
2019-01-11T07:35:46.440Z,31.07
2019-01-11T07:36:55.298Z,32.70
2019-01-11T07:38:02.015Z,31.20
2019-01-11T07:39:23.991Z,33.03
2019-01-11T07:40:30.697Z,31.80
2019-01-11T07:41:37.382Z,29.48
2019-01-11T07:42:44.052Z,30.53
2019-01-11T07:43:52.013Z,31.65
2019-01-11T07:44:59.139Z,32.42
2019-01-11T07:46:06.163Z,31.82
2019-01-11T07:47:12.920Z,30.87
2019-01-11T07:48:19.843Z,32.17
2019-01-11T07:49:26.593Z,30.40
2019-01-11T07:50:33.291Z,31.67
2019-01-11T07:51:40.450Z,31.00
2019-01-11T07:52:47.221Z,29.10
2019-01-11T07:53:53.927Z,28.37
2019-01-11T07:55:01.384Z,30.27
2019-01-11T07:56:08.211Z,28.80
2019-01-11T07:57:15.238Z,30.10
2019-01-11T07:58:21.956Z,28.03
2019-01-11T07:59:28.951Z,28.97
2019-01-11T08:00:36.110Z,28.77
2019-01-11T08:01:43.250Z,30.27
2019-01-11T08:02:49.909Z,30.33
2019-01-11T08:03:56.932Z,29.85
2019-01-11T08:05:03.631Z,28.53
2019-01-11T08:06:10.712Z,27.30
2019-01-11T08:07:17.916Z,28.60
2019-01-11T08:08:24.612Z,29.20
2019-01-11T08:09:31.324Z,28.10
2019-01-11T08:10:38.329Z,28.77
2019-01-11T08:11:45.405Z,27.27
2019-01-11T08:12:52.486Z,25.87
2019-01-11T08:13:59.907Z,28.00
2019-01-11T08:15:08.158Z,26.67
2019-01-11T08:16:14.843Z,27.60
2019-01-11T08:17:21.999Z,27.53
2019-01-11T08:18:29.067Z,26.33
2019-01-11T08:19:35.747Z,24.73
2019-01-11T08:20:42.460Z,27.50
2019-01-11T08:21:49.443Z,25.35
2019-01-11T08:22:56.379Z,25.50
2019-01-11T08:24:03.275Z,26.05
2019-01-11T08:25:11.240Z,24.40
2019-01-11T08:26:18.440Z,25.10
2019-01-11T08:27:25.530Z,25.47
2019-01-11T08:28:34.361Z,25.43
2019-01-11T08:29:41.061Z,24.67
2019-01-11T08:30:49.763Z,25.67
2019-01-11T08:31:56.515Z,23.73
2019-01-11T08:33:04.999Z,23.87
2019-01-11T08:34:11.687Z,27.00
2019-01-11T08:35:18.965Z,24.63
2019-01-11T08:36:25.775Z,24.27
2019-01-11T08:37:32.704Z,24.43
2019-01-11T08:38:39.861Z,25.20
2019-01-11T08:39:46.639Z,25.10
2019-01-11T08:40:53.373Z,25.03
2019-01-11T08:42:00.063Z,24.27
2019-01-11T08:43:06.837Z,24.30
2019-01-11T08:44:14.244Z,22.82
2019-01-11T08:45:21.447Z,24.17
2019-01-11T08:46:28.129Z,22.60
2019-01-11T08:47:34.834Z,20.87
2019-01-11T08:48:42.003Z,21.87
2019-01-11T08:49:49.266Z,20.52
2019-01-11T08:51:02.480Z,21.37
2019-01-11T08:52:04.689Z,20.90
2019-01-11T08:53:11.671Z,20.30
2019-01-11T08:54:18.642Z,19.83
2019-01-11T08:55:25.408Z,22.00
2019-01-11T08:56:32.092Z,20.23
2019-01-11T08:57:38.861Z,21.60
2019-01-11T08:58:46.314Z,18.80
2019-01-11T08:59:52.999Z,18.40
2019-01-11T09:01:00.100Z,19.47
2019-01-11T09:02:06.866Z,18.52
2019-01-11T09:03:13.685Z,18.50
2019-01-11T09:04:20.364Z,17.30
2019-01-11T09:05:27.370Z,17.07
2019-01-11T09:06:34.358Z,17.90
2019-01-11T09:07:41.157Z,18.30
2019-01-11T09:08:47.850Z,18.10
2019-01-11T09:09:54.735Z,18.27
2019-01-11T09:11:01.846Z,21.07
2019-01-11T09:12:08.903Z,17.07
2019-01-11T09:13:15.566Z,16.13
2019-01-11T09:14:47.030Z,15.63
2019-01-11T09:15:53.701Z,14.70
2019-01-11T09:17:01.098Z,16.83
2019-01-11T09:18:15.534Z,18.93
2019-01-11T09:19:22.656Z,15.63
2019-01-11T09:20:29.338Z,16.40
2019-01-11T09:21:41.565Z,17.40
2019-01-11T09:22:45.092Z,14.20
2019-01-11T09:23:52.141Z,17.50
2019-01-11T09:24:58.847Z,16.30
2019-01-11T09:26:05.956Z,15.33
2019-01-11T09:27:13.293Z,13.90
2019-01-11T09:28:20.138Z,14.60
2019-01-11T09:29:27.145Z,13.20
2019-01-11T09:30:34.282Z,12.57
2019-01-11T09:31:40.944Z,15.10
2019-01-11T09:32:48.413Z,14.00
2019-01-11T09:33:55.112Z,15.50
2019-01-11T09:35:02.001Z,15.60
2019-01-11T09:36:09.038Z,14.83
2019-01-11T09:37:16.059Z,15.50
2019-01-11T09:38:22.748Z,15.00
2019-01-11T09:39:29.475Z,15.20
2019-01-11T09:40:36.504Z,14.87
2019-01-11T09:41:43.214Z,14.77
2019-01-11T09:42:50.347Z,15.73
2019-01-11T09:43:57.024Z,16.53
2019-01-11T09:45:03.694Z,13.47
2019-01-11T09:46:10.986Z,13.83
2019-01-11T09:47:17.662Z,14.27
2019-01-11T09:48:24.384Z,14.10
2019-01-11T09:49:32.429Z,14.40
2019-01-11T09:50:39.658Z,16.80
2019-01-11T09:51:47.072Z,13.73
2019-01-11T09:52:53.740Z,14.30
2019-01-11T09:54:00.786Z,14.37
2019-01-11T09:55:08.666Z,11.97
2019-01-11T09:56:15.965Z,13.00
2019-01-11T09:57:23.037Z,10.97
2019-01-11T09:58:30.046Z,13.40
2019-01-11T09:59:36.770Z,12.63
2019-01-11T10:00:44.345Z,12.80
2019-01-11T10:02:04.676Z,10.87
2019-01-11T10:03:12.633Z,12.03
2019-01-11T10:04:24.271Z,12.03
2019-01-11T10:05:31.294Z,11.47
2019-01-11T10:06:42.132Z,11.00
2019-01-11T10:07:48.812Z,11.10
2019-01-11T10:08:55.557Z,12.17
2019-01-11T10:10:02.219Z,10.70
2019-01-11T10:11:09.288Z,9.10
2019-01-11T10:12:16.599Z,12.73
2019-01-11T10:13:24.085Z,11.93
2019-01-11T10:14:30.783Z,11.20
2019-01-11T10:15:37.917Z,11.30
2019-01-11T10:16:44.959Z,13.37
2019-01-11T10:17:52.335Z,10.10
2019-01-11T10:18:59.376Z,10.87
2019-01-11T10:20:07.311Z,11.90
2019-01-11T10:21:14.021Z,11.07
2019-01-11T10:22:20.711Z,11.47
2019-01-11T10:23:27.828Z,10.70
2019-01-11T10:24:34.763Z,10.43
2019-01-11T10:25:41.400Z,12.10
2019-01-11T10:26:48.080Z,10.43
2019-01-11T10:27:54.850Z,10.07
2019-01-11T10:29:02.354Z,10.00
2019-01-11T10:30:16.201Z,9.63
2019-01-11T10:31:23.415Z,9.13
2019-01-11T10:32:30.263Z,10.43
2019-01-11T10:33:36.937Z,9.00
2019-01-11T10:34:44.330Z,9.17
2019-01-11T10:35:51.355Z,9.90
2019-01-11T10:36:58.391Z,9.83
2019-01-11T10:38:05.640Z,8.60
2019-01-11T10:39:12.321Z,10.00
2019-01-11T10:40:19.836Z,9.00
2019-01-11T10:41:26.509Z,8.40
2019-01-11T10:42:33.213Z,8.97
2019-01-11T10:43:39.888Z,9.30
2019-01-11T10:44:46.978Z,8.27
2019-01-11T10:45:53.642Z,8.80
2019-01-11T10:47:00.297Z,7.70
2019-01-11T10:48:07.835Z,7.80
2019-01-11T10:49:14.783Z,7.73
2019-01-11T10:50:21.750Z,8.10
2019-01-11T10:51:28.842Z,9.07
2019-01-11T10:52:35.493Z,8.33
2019-01-11T10:53:42.176Z,8.20
2019-01-11T10:54:49.325Z,7.50
2019-01-11T10:55:56.005Z,8.00
2019-01-11T10:57:02.668Z,8.57
2019-01-11T10:58:09.471Z,7.00
2019-01-11T10:59:16.106Z,7.13
2019-01-11T11:00:27.658Z,6.40
2019-01-11T11:01:34.668Z,7.67
2019-01-11T11:02:41.743Z,6.67
2019-01-11T11:03:48.761Z,6.33
2019-01-11T11:04:55.446Z,6.60
2019-01-11T11:06:02.138Z,7.07
2019-01-11T11:07:09.300Z,6.50
2019-01-11T11:08:16.348Z,6.10
2019-01-11T11:09:23.337Z,7.53
2019-01-11T11:10:30.351Z,5.80
2019-01-11T11:11:37.119Z,5.80
2019-01-11T11:12:43.900Z,7.07
2019-01-11T11:13:50.930Z,5.80
2019-01-11T11:14:57.993Z,5.27
2019-01-11T11:16:04.971Z,5.67
2019-01-11T11:17:11.828Z,5.67
2019-01-11T11:18:18.478Z,4.93
2019-01-11T11:19:25.345Z,5.20
2019-01-11T11:20:32.350Z,4.93
2019-01-11T11:21:39.040Z,6.07
2019-01-11T11:22:46.053Z,6.13
2019-01-11T11:23:54.162Z,4.50
2019-01-11T11:25:01.683Z,5.40
2019-01-11T11:26:08.811Z,4.67
2019-01-11T11:27:15.502Z,5.37
2019-01-11T11:28:22.124Z,4.30
2019-01-11T11:29:29.182Z,5.20
2019-01-11T11:30:36.268Z,4.33
2019-01-11T11:31:42.969Z,3.97
2019-01-11T11:32:59.745Z,4.60
2019-01-11T11:34:07.027Z,5.50
2019-01-11T11:35:13.736Z,4.50
2019-01-11T11:36:20.389Z,5.20
2019-01-11T11:37:29.098Z,4.10
2019-01-11T11:38:35.770Z,4.20
2019-01-11T11:39:42.442Z,4.23
2019-01-11T11:40:49.347Z,4.13
2019-01-11T11:41:55.993Z,3.93
2019-01-11T11:43:02.878Z,3.67
2019-01-11T11:44:11.643Z,4.37
2019-01-11T11:45:19.016Z,3.27
2019-01-11T11:46:26.001Z,3.40
2019-01-11T11:47:32.673Z,4.20
2019-01-11T11:48:40.111Z,3.43
2019-01-11T11:49:46.792Z,3.93
2019-01-11T11:50:53.827Z,3.20
2019-01-11T11:52:01.165Z,2.57
2019-01-11T11:53:07.857Z,3.03
2019-01-11T11:54:14.688Z,3.97
2019-01-11T11:55:21.373Z,3.57
2019-01-11T11:56:28.092Z,3.53
2019-01-11T11:57:35.157Z,3.40
2019-01-11T11:58:42.267Z,3.90
2019-01-11T11:59:49.041Z,2.90
2019-01-11T12:00:55.832Z,3.50
2019-01-11T12:02:02.868Z,3.50
2019-01-11T12:03:10.352Z,3.60
2019-01-11T12:04:16.993Z,3.07
2019-01-11T12:05:24.117Z,4.20
2019-01-11T12:06:30.829Z,3.20
2019-01-11T12:07:37.579Z,3.50
2019-01-11T12:08:44.317Z,3.90
2019-01-11T12:09:51.419Z,2.93
2019-01-11T12:10:58.447Z,3.80
2019-01-11T12:12:05.559Z,4.40
2019-01-11T12:13:12.259Z,3.90
2019-01-11T12:14:18.952Z,3.43
2019-01-11T12:15:25.939Z,4.40
2019-01-11T12:16:32.597Z,3.43
2019-01-11T12:17:39.340Z,3.37
2019-01-11T12:18:46.636Z,3.40
2019-01-11T12:19:57.022Z,5.63
2019-01-11T12:21:02.047Z,3.80
2019-01-11T12:22:08.831Z,2.93
2019-01-11T12:23:15.456Z,3.10
2019-01-11T12:24:22.126Z,3.27
2019-01-11T12:25:29.135Z,3.40
2019-01-11T12:26:36.297Z,3.50
2019-01-11T12:27:43.313Z,3.33
2019-01-11T12:28:49.963Z,3.60
2019-01-11T12:29:56.644Z,3.57
2019-01-11T12:31:03.346Z,2.50
2019-01-11T12:32:10.190Z,3.70
2019-01-11T12:33:16.834Z,3.20
2019-01-11T12:34:23.512Z,2.70
2019-01-11T12:35:30.921Z,2.67
2019-01-11T12:36:37.637Z,2.90
2019-01-11T12:37:44.548Z,2.50
2019-01-11T12:38:51.201Z,3.13
2019-01-11T12:39:57.906Z,3.60
2019-01-11T12:41:05.037Z,2.63
2019-01-11T12:42:13.301Z,2.50
2019-01-11T12:43:20.171Z,3.00
2019-01-11T12:44:26.928Z,2.40
2019-01-11T12:45:33.631Z,3.90
2019-01-11T12:46:40.356Z,2.60
2019-01-11T12:47:47.008Z,2.37
2019-01-11T12:48:53.877Z,2.30
2019-01-11T12:50:00.674Z,2.83
2019-01-11T12:51:07.481Z,3.60
2019-01-11T12:52:14.535Z,2.50
2019-01-11T12:53:21.200Z,2.33
2019-01-11T12:54:27.919Z,3.03
2019-01-11T12:55:34.655Z,2.40
2019-01-11T12:56:41.351Z,2.73
2019-01-11T12:57:48.016Z,2.60
2019-01-11T12:58:55.042Z,2.20
2019-01-11T13:00:02.002Z,2.10
2019-01-11T13:01:09.789Z,2.50
2019-01-11T13:02:16.935Z,2.80
2019-01-11T13:03:23.726Z,2.70
2019-01-11T13:04:30.393Z,2.90
2019-01-11T13:05:37.090Z,3.70
2019-01-11T13:06:44.087Z,2.60
2019-01-11T13:07:50.830Z,2.57
2019-01-11T13:08:57.520Z,1.93
2019-01-11T13:10:05.199Z,2.63
2019-01-11T13:11:11.882Z,2.07
2019-01-11T13:12:18.621Z,2.40
2019-01-11T13:13:25.712Z,2.50
2019-01-11T13:14:32.384Z,2.77
2019-01-11T13:15:39.559Z,3.43
2019-01-11T13:16:46.532Z,3.33
2019-01-11T13:17:53.258Z,2.77
2019-01-11T13:18:59.993Z,2.60
2019-01-11T13:20:11.788Z,2.20
2019-01-11T13:21:18.551Z,2.30
2019-01-11T13:22:25.630Z,2.13
2019-01-11T13:23:33.208Z,4.27
2019-01-11T13:24:40.288Z,3.10
2019-01-11T13:25:46.975Z,3.53
2019-01-11T13:26:53.701Z,2.83
2019-01-11T13:28:00.343Z,2.73
2019-01-11T13:29:07.309Z,3.33
2019-01-11T13:30:17.106Z,2.30
2019-01-11T13:31:24.076Z,2.10
2019-01-11T13:32:30.756Z,2.97
2019-01-11T13:33:38.164Z,3.10
2019-01-11T13:34:45.175Z,3.40
2019-01-11T13:35:51.856Z,3.40
2019-01-11T13:36:58.506Z,4.83
2019-01-11T13:38:05.525Z,3.50
2019-01-11T13:39:13.848Z,4.13
2019-01-11T13:40:25.703Z,3.70
2019-01-11T13:41:32.392Z,3.10
2019-01-11T13:42:39.126Z,2.20
2019-01-11T13:43:46.170Z,3.10
2019-01-11T13:44:53.350Z,2.80
2019-01-11T13:46:00.377Z,2.77
2019-01-11T13:47:07.219Z,2.70
2019-01-11T13:48:13.940Z,3.07
2019-01-11T13:49:21.108Z,2.20
2019-01-11T13:50:42.367Z,3.00
2019-01-11T13:51:49.442Z,2.20
2019-01-11T13:52:56.436Z,2.00
2019-01-11T13:54:03.488Z,2.67
2019-01-11T13:55:10.155Z,2.70
2019-01-11T13:56:17.203Z,2.60
2019-01-11T13:57:24.180Z,2.23
2019-01-11T13:58:31.162Z,3.70
2019-01-11T13:59:41.491Z,3.33
2019-01-11T14:00:46.379Z,2.07
2019-01-11T14:01:53.755Z,2.60
2019-01-11T14:03:00.531Z,2.90
2019-01-11T14:04:07.418Z,2.60
2019-01-11T14:05:14.254Z,2.53
2019-01-11T14:06:20.894Z,3.20
2019-01-11T14:07:27.638Z,2.53
2019-01-11T14:08:35.053Z,2.43
2019-01-11T14:09:42.445Z,2.33
2019-01-11T14:10:49.120Z,2.90
2019-01-11T14:11:56.480Z,2.30
2019-01-11T14:13:03.119Z,2.93
2019-01-11T14:14:10.297Z,2.27
2019-01-11T14:15:17.650Z,2.37
2019-01-11T14:16:24.332Z,2.40
2019-01-11T14:17:30.984Z,2.10
2019-01-11T14:18:37.753Z,1.93
2019-01-11T14:19:45.027Z,2.73
2019-01-11T14:20:51.696Z,2.37
2019-01-11T14:21:58.336Z,1.97
2019-01-11T14:23:05.543Z,2.40
2019-01-11T14:24:12.557Z,1.87
2019-01-11T14:25:19.899Z,1.83
2019-01-11T14:26:26.579Z,1.70
2019-01-11T14:27:33.240Z,1.73
2019-01-11T14:28:40.282Z,1.80
2019-01-11T14:29:47.058Z,2.30
2019-01-11T14:30:54.064Z,2.20
2019-01-11T14:32:00.764Z,1.30
2019-01-11T14:33:08.087Z,2.13
2019-01-11T14:34:14.786Z,1.47
2019-01-11T14:35:21.902Z,2.10